Overview Statistics Trail Chart Weather Telemetry Raw packets
 

This is the latest recevied weather packets stored in our database for station/object IU5JAE-13. If no packets are shown the sender has not sent any weather packets the latest 10 day(s).

<< 10 11 12 13 14 15 16 >>
Time Temp. Humidity Pressure Rain* Wind** Luminosity Snow
1788542128 25.56° C 58% 1020.7 hPa 0 mm - 16 W/m² -
1788541526 26.11° C 57% 1020.7 hPa 0 mm - 20 W/m² -
1788540924 26.11° C 58% 1020.7 hPa 0 mm - 22 W/m² -
1788540321 27.22° C 54% 1020.8 hPa 0 mm - 24 W/m² -
1788539719 27.78° C 51% 1020.8 hPa 0 mm - 26 W/m² -
1788539116 27.78° C 50% 1020.9 hPa 0 mm - 28 W/m² -
1788538534 27.78° C 50% 1020.9 hPa 0 mm - 30 W/m² -
1788537931 28.33° C 49% 1020.9 hPa 0 mm - 32 W/m² -
1788537330 29.44° C 47% 1021 hPa 0 mm - 138 W/m² -
1788536746 28.89° C 50% 1021 hPa 0 mm - 155 W/m² -
1788536124 29.44° C 49% 1021 hPa 0 mm - 173 W/m² -
1788535522 30° C 47% 1021 hPa 0 mm - 193 W/m² -
1788534919 29.44° C 47% 1021.1 hPa 0 mm - 212 W/m² -
1788534317 29.44° C 46% 1021 hPa 0 mm - 234 W/m² -
1788533752 28.89° C 45% 1021 hPa 0 mm - 255 W/m² -
1788533132 29.44° C 46% 1021 hPa 0 mm - 274 W/m² -
1788532530 30° C 49% 1021.1 hPa 0 mm - 290 W/m² -
1788531927 29.44° C 50% 1021.2 hPa 0 mm - 304 W/m² -
1788531325 30° C 49% 1021.3 hPa 0 mm - 320 W/m² -
1788530723 30.56° C 47% 1021.4 hPa 0 mm - 337 W/m² -
1788530120 30.56° C 46% 1021.3 hPa 0 mm - 352 W/m² -
1788529518 30.56° C 45% 1021.5 hPa 0 mm - 378 W/m² -
1788528915 30.56° C 46% 1021.4 hPa 0 mm - 402 W/m² -
1788528333 31.11° C 46% 1021.4 hPa 0 mm - 422 W/m² -
1788527753 31.11° C 47% 1021.5 hPa 0 mm - 441 W/m² -

* Rain latest hour (hover to see other rain measurements)
** Current wind speed in m/s (hover to see current wind gust speed)